Alberic, Spain
Current Conditions -  °F | °C
As of 7:30 PM on Saturday 25 Oct 2014 (Local Time) from LEVC Reporting Station
Clear Clear  
Wind Chill: 75°   Ceiling: Unl
Heat Index: 75°   Visibility: 6mi
Dew Point: 54°   Wind: 3mph
Humidity: 47%   Direction: 90°E
Pressure: 30.09"   Gusts: NA
Location:  39.12°N, 0.52°W
Report Text: LEVC 251730Z 09003KT CAVOK 24/12 Q1019 NOSIG
Loading
Personal Weather Stations






























Interactive Weather Map
Tropical Storm Tracking
New forecast layout! Learn more

10-Day Weather Forecast

Advertisements
Track Severe Weather on mobile